createdAt,value
2022-11-04T00:02:54.105Z,38.83
2022-11-04T00:08:14.576Z,38.35
2022-11-04T00:13:18.854Z,38.42
2022-11-04T00:18:21.741Z,38.17
2022-11-04T00:23:42.150Z,38.28
2022-11-04T00:28:46.599Z,38.40
2022-11-04T00:33:51.495Z,38.28
2022-11-04T00:38:54.781Z,37.67
2022-11-04T00:44:00.704Z,37.42
2022-11-04T00:49:03.674Z,37.30
2022-11-04T00:54:06.705Z,37.85
2022-11-04T00:59:14.379Z,37.47
2022-11-04T01:04:17.790Z,37.28
2022-11-04T01:09:21.077Z,37.60
2022-11-04T01:14:25.358Z,37.65
2022-11-04T01:19:28.279Z,37.20
2022-11-04T01:24:31.176Z,37.00
2022-11-04T01:29:35.410Z,37.75
2022-11-04T01:34:42.471Z,40.20
2022-11-04T01:39:46.721Z,37.42
2022-11-04T01:44:56.947Z,37.08
2022-11-04T01:50:03.346Z,37.17
2022-11-04T01:55:12.474Z,37.58
2022-11-04T02:00:18.615Z,36.88
2022-11-04T02:05:22.313Z,36.88
2022-11-04T02:10:28.066Z,37.83
2022-11-04T02:15:40.977Z,37.00
2022-11-04T02:21:03.306Z,37.38
2022-11-04T02:26:36.721Z,37.25
2022-11-04T02:31:47.777Z,37.40
2022-11-04T02:37:05.152Z,37.30
2022-11-04T02:42:17.386Z,37.35
2022-11-04T02:47:26.335Z,37.50
2022-11-04T02:52:34.767Z,37.38
2022-11-04T02:57:40.657Z,36.78
2022-11-04T03:02:49.135Z,38.42
2022-11-04T03:07:55.209Z,36.80
2022-11-04T03:13:02.500Z,36.70
2022-11-04T03:18:17.016Z,37.15
2022-11-04T03:23:20.794Z,37.15
2022-11-04T03:28:32.506Z,36.97
2022-11-04T03:33:41.885Z,36.58
2022-11-04T03:38:45.617Z,37.92
2022-11-04T03:43:48.561Z,37.15
2022-11-04T03:48:54.497Z,36.88
2022-11-04T03:53:58.372Z,36.80
2022-11-04T03:59:17.241Z,36.85
2022-11-04T04:04:28.947Z,36.83
2022-11-04T04:09:38.365Z,37.15
2022-11-04T04:14:44.315Z,39.50
2022-11-04T04:19:53.201Z,37.28
2022-11-04T04:25:18.290Z,37.42
2022-11-04T04:30:21.389Z,36.90
2022-11-04T04:35:43.884Z,36.60
2022-11-04T04:41:09.262Z,37.13
2022-11-04T04:46:13.274Z,36.65
2022-11-04T04:51:17.729Z,36.97
2022-11-04T04:56:20.665Z,36.75
2022-11-04T05:01:24.362Z,36.92
2022-11-04T05:06:28.775Z,41.30
2022-11-04T05:11:31.866Z,37.33
2022-11-04T05:16:40.422Z,37.42
2022-11-04T05:21:44.983Z,37.65
2022-11-04T05:26:47.920Z,36.90
2022-11-04T05:31:51.003Z,37.67
2022-11-04T05:36:55.277Z,42.05
2022-11-04T05:41:58.808Z,38.53
2022-11-04T05:47:01.725Z,37.42
2022-11-04T05:52:06.907Z,38.42
2022-11-04T05:57:18.468Z,38.58
2022-11-04T06:02:21.581Z,40.80
2022-11-04T06:07:27.196Z,39.95
2022-11-04T06:12:30.205Z,37.92
2022-11-04T06:17:39.217Z,37.20
2022-11-04T06:22:43.479Z,37.55
2022-11-04T06:27:46.375Z,37.17
2022-11-04T06:32:49.331Z,39.30
2022-11-04T06:37:56.278Z,36.75
2022-11-04T06:42:59.788Z,37.03
2022-11-04T06:48:02.738Z,36.88
2022-11-04T06:53:07.249Z,36.78
2022-11-04T06:58:14.476Z,36.95
2022-11-04T07:03:17.526Z,38.25
2022-11-04T07:08:22.332Z,39.38
2022-11-04T07:13:25.289Z,36.92
2022-11-04T07:18:28.576Z,37.78
2022-11-04T07:23:32.911Z,37.05
2022-11-04T07:28:38.784Z,38.70
2022-11-04T07:33:42.299Z,37.65
2022-11-04T07:38:46.888Z,37.75
2022-11-04T07:43:51.163Z,37.13
2022-11-04T07:48:54.107Z,37.53
2022-11-04T07:53:58.429Z,37.95
2022-11-04T07:59:01.369Z,39.08
2022-11-04T08:04:05.147Z,37.53
2022-11-04T08:09:09.546Z,37.83
2022-11-04T08:14:12.791Z,40.13
2022-11-04T08:19:21.703Z,37.70
2022-11-04T08:24:26.223Z,38.70
2022-11-04T08:29:29.278Z,38.17
2022-11-04T08:34:32.286Z,37.03
2022-11-04T08:39:36.591Z,37.97
2022-11-04T08:44:40.521Z,37.92
2022-11-04T08:49:43.460Z,37.60
2022-11-04T08:54:47.980Z,37.67
2022-11-04T08:59:51.180Z,38.33
2022-11-04T09:04:54.191Z,37.70
2022-11-04T09:09:58.507Z,37.88
2022-11-04T09:15:01.568Z,37.50
2022-11-04T09:20:04.851Z,39.85
2022-11-04T09:25:10.242Z,39.75
2022-11-04T09:30:13.953Z,37.95
2022-11-04T09:35:17.847Z,38.08
2022-11-04T09:40:24.975Z,38.00
2022-11-04T09:45:30.067Z,37.97
2022-11-04T09:50:38.088Z,38.50
2022-11-04T09:55:50.310Z,37.85
2022-11-04T10:00:58.569Z,39.17
2022-11-04T10:06:19.320Z,40.17
2022-11-04T10:11:30.989Z,38.50
2022-11-04T10:16:51.972Z,37.53
2022-11-04T10:22:05.174Z,38.45
2022-11-04T10:27:16.000Z,39.35
2022-11-04T10:32:22.781Z,46.50
2022-11-04T10:37:27.139Z,41.10
2022-11-04T10:42:34.175Z,42.75
2022-11-04T10:47:45.107Z,39.53
2022-11-04T10:52:48.214Z,40.17
2022-11-04T10:57:56.309Z,38.28
2022-11-04T11:02:59.762Z,39.60
2022-11-04T11:08:02.693Z,38.90
2022-11-04T11:13:24.442Z,37.75
2022-11-04T11:18:29.553Z,38.58
2022-11-04T11:23:41.879Z,37.63
2022-11-04T11:28:58.436Z,39.50
2022-11-04T11:34:05.248Z,38.53
2022-11-04T11:39:17.761Z,38.78
2022-11-04T11:44:27.340Z,37.88
2022-11-04T11:49:33.817Z,39.28
2022-11-04T11:54:39.188Z,38.53
2022-11-04T12:10:51.794Z,38.17
2022-11-04T12:16:16.942Z,41.03
2022-11-04T12:21:27.103Z,37.78
2022-11-04T12:26:39.173Z,38.67
2022-11-04T12:31:52.671Z,39.63
2022-11-04T12:37:11.539Z,40.05
2022-11-04T12:42:32.623Z,38.92
2022-11-04T12:47:41.560Z,38.55
2022-11-04T12:53:16.853Z,39.72
2022-11-04T12:58:31.702Z,40.28
2022-11-04T13:03:43.520Z,38.53
2022-11-04T13:08:51.632Z,39.60
2022-11-04T13:14:06.293Z,39.45
2022-11-04T13:19:23.744Z,37.97
2022-11-04T13:24:31.792Z,38.42
2022-11-04T13:29:37.016Z,38.50
2022-11-04T13:34:49.337Z,38.33
2022-11-04T13:39:57.312Z,38.38
2022-11-04T13:45:07.194Z,40.45
2022-11-04T13:50:31.575Z,38.90
2022-11-04T13:55:50.955Z,38.80
2022-11-04T14:01:18.614Z,42.17
2022-11-04T14:06:54.276Z,38.33
2022-11-04T14:12:30.344Z,38.28
2022-11-04T14:18:01.510Z,38.08
2022-11-04T14:23:08.779Z,38.15
2022-11-04T14:28:26.746Z,38.97
2022-11-04T14:33:36.229Z,38.25
2022-11-04T14:38:40.622Z,38.25
2022-11-04T14:43:46.626Z,38.45
2022-11-04T14:48:53.460Z,38.38
2022-11-04T14:54:05.353Z,39.92
2022-11-04T14:59:08.760Z,40.17
2022-11-04T15:04:18.508Z,38.72
2022-11-04T15:09:25.028Z,43.72
2022-11-04T15:14:28.126Z,39.00
2022-11-04T15:19:33.112Z,38.90
2022-11-04T15:24:37.670Z,38.35
2022-11-04T15:29:40.747Z,38.40
2022-11-04T15:34:44.582Z,39.55
2022-11-04T15:39:51.284Z,39.13
2022-11-04T15:45:00.493Z,38.63
2022-11-04T15:50:16.049Z,39.53
2022-11-04T15:55:23.703Z,38.80
2022-11-04T16:00:28.813Z,39.45
2022-11-04T16:05:35.687Z,40.80
2022-11-04T16:10:40.431Z,39.38
2022-11-04T16:15:46.749Z,39.35
2022-11-04T16:20:50.553Z,39.35
2022-11-04T16:26:01.099Z,41.13
2022-11-04T16:31:07.511Z,40.97
2022-11-04T16:36:23.335Z,40.75
2022-11-04T16:41:35.307Z,39.53
2022-11-04T16:46:53.583Z,42.70
2022-11-04T16:52:01.851Z,43.67
2022-11-04T16:57:15.476Z,41.53
2022-11-04T17:02:27.602Z,40.28
2022-11-04T17:07:51.612Z,42.33
2022-11-04T17:12:57.202Z,41.22
2022-11-04T17:18:00.206Z,42.25
2022-11-04T17:23:03.150Z,42.08
2022-11-04T17:28:08.618Z,39.42
2022-11-04T17:33:14.290Z,42.20
2022-11-04T17:38:18.545Z,41.67
2022-11-04T17:43:40.242Z,43.20
2022-11-04T17:48:44.175Z,42.00
2022-11-04T17:53:48.392Z,42.33
2022-11-04T17:58:53.483Z,41.58
2022-11-04T18:03:58.095Z,43.17
2022-11-04T18:09:01.759Z,44.42
2022-11-04T18:14:06.084Z,45.50
2022-11-04T18:19:09.398Z,44.72
2022-11-04T18:24:13.401Z,44.40
2022-11-04T18:29:23.026Z,43.75
2022-11-04T18:34:26.570Z,41.17
2022-11-04T18:39:29.520Z,40.25
2022-11-04T18:44:33.866Z,41.85
2022-11-04T18:49:36.967Z,38.40
2022-11-04T18:54:40.504Z,38.42
2022-11-04T18:59:47.155Z,38.35
2022-11-04T19:04:50.291Z,39.15
2022-11-04T19:09:54.557Z,37.53
2022-11-04T19:14:58.917Z,37.97
2022-11-04T19:20:08.434Z,37.55
2022-11-04T19:25:14.799Z,37.53
2022-11-04T19:30:19.513Z,37.80
2022-11-04T19:35:22.439Z,38.67
2022-11-04T19:40:25.629Z,37.97
2022-11-04T19:45:34.032Z,37.75
2022-11-04T19:50:40.510Z,38.03
2022-11-04T19:55:49.497Z,38.20
2022-11-04T20:00:54.633Z,37.90
2022-11-04T20:05:58.407Z,37.88
2022-11-04T20:11:17.709Z,39.58
2022-11-04T20:16:25.343Z,37.40
2022-11-04T20:21:33.374Z,37.53
2022-11-04T20:26:38.816Z,37.47
2022-11-04T20:31:48.608Z,37.42
2022-11-04T20:36:54.088Z,37.40
2022-11-04T20:41:57.269Z,37.40
2022-11-04T20:47:02.292Z,37.20
2022-11-04T20:52:15.831Z,37.65
2022-11-04T20:57:19.197Z,36.92
2022-11-04T21:02:24.754Z,36.72
2022-11-04T21:07:28.630Z,37.75
2022-11-04T21:12:31.674Z,37.40
2022-11-04T21:17:40.107Z,37.15
2022-11-04T21:22:43.318Z,38.85
2022-11-04T21:27:46.356Z,37.70
2022-11-04T21:32:50.753Z,38.17
2022-11-04T21:37:53.741Z,37.60
2022-11-04T21:42:56.725Z,37.45
2022-11-04T21:48:01.227Z,38.17
2022-11-04T21:53:04.158Z,37.25
2022-11-04T21:58:07.322Z,37.33
2022-11-04T22:03:13.121Z,36.90
2022-11-04T22:08:19.899Z,37.35
2022-11-04T22:13:24.179Z,36.95
2022-11-04T22:18:30.653Z,36.53
2022-11-04T22:23:34.950Z,37.33
2022-11-04T22:28:38.087Z,36.65
2022-11-04T22:33:42.760Z,36.80
2022-11-04T22:38:45.969Z,36.85
2022-11-04T22:43:49.145Z,36.35
2022-11-04T22:48:53.886Z,37.10
2022-11-04T22:54:03.111Z,36.95
2022-11-04T22:59:11.507Z,37.05
2022-11-04T23:04:15.887Z,36.97
2022-11-04T23:09:19.324Z,36.63
2022-11-04T23:14:41.701Z,36.47
2022-11-04T23:19:46.242Z,36.97
2022-11-04T23:25:07.285Z,36.38
2022-11-04T23:30:22.067Z,36.95
2022-11-04T23:35:46.122Z,36.85
2022-11-04T23:41:04.698Z,37.72
2022-11-04T23:46:25.312Z,36.50
2022-11-04T23:51:47.747Z,37.00
2022-11-04T23:57:08.552Z,37.58
